createdAt,value
2024-03-05T00:01:00.400Z,39.70
2024-03-05T00:06:11.724Z,41.03
2024-03-05T00:11:17.480Z,42.10
2024-03-05T00:16:23.073Z,39.53
2024-03-05T00:21:32.625Z,38.47
2024-03-05T00:26:38.340Z,41.93
2024-03-05T00:31:44.300Z,41.20
2024-03-05T00:36:55.195Z,41.47
2024-03-05T00:42:00.793Z,41.90
2024-03-05T00:47:06.161Z,42.43
2024-03-05T00:52:13.954Z,43.33
2024-03-05T00:57:19.320Z,40.90
2024-03-05T01:02:27.362Z,41.63
2024-03-05T01:07:35.351Z,45.53
2024-03-05T01:12:42.650Z,43.00
2024-03-05T01:17:49.107Z,42.57
2024-03-05T01:22:56.997Z,45.23
2024-03-05T01:28:02.250Z,44.37
2024-03-05T01:33:21.441Z,43.83
2024-03-05T01:38:29.780Z,40.80
2024-03-05T01:43:36.985Z,41.27
2024-03-05T01:48:42.173Z,40.87
2024-03-05T01:53:52.284Z,43.27
2024-03-05T01:59:01.572Z,41.40
2024-03-05T02:04:07.742Z,40.43
2024-03-05T02:09:23.132Z,40.70
2024-03-05T02:14:29.537Z,40.57
2024-03-05T02:19:35.255Z,38.70
2024-03-05T02:24:50.626Z,37.90
2024-03-05T02:30:01.134Z,37.37
2024-03-05T02:35:06.769Z,37.27
2024-03-05T02:40:27.134Z,35.37
2024-03-05T02:45:32.796Z,37.80
2024-03-05T02:50:40.030Z,33.07
2024-03-05T02:55:51.383Z,34.60
2024-03-05T03:00:56.954Z,33.27
2024-03-05T03:06:06.910Z,35.67
2024-03-05T03:11:18.927Z,35.23
2024-03-05T03:16:36.029Z,33.57
2024-03-05T03:21:45.460Z,34.70
2024-03-05T04:36:24.405Z,35.07
2024-03-05T04:47:35.657Z,34.15
2024-03-05T05:33:36.902Z,36.70
2024-03-05T05:38:42.055Z,36.57
2024-03-05T05:43:47.217Z,36.37
2024-03-05T05:48:55.974Z,36.67
2024-03-05T05:54:02.079Z,33.07
2024-03-05T05:59:09.554Z,33.47
2024-03-05T06:04:19.492Z,32.67
2024-03-05T06:09:29.708Z,33.87
2024-03-05T06:14:36.242Z,33.40
2024-03-05T06:19:45.235Z,34.47
2024-03-05T06:24:51.184Z,31.20
2024-03-05T06:30:03.507Z,33.17
2024-03-05T06:35:42.161Z,31.90
2024-03-05T06:40:57.676Z,31.40
2024-03-05T06:46:12.544Z,32.20
2024-03-05T06:51:28.558Z,30.87
2024-03-05T06:56:46.212Z,31.70
2024-03-05T07:01:58.331Z,32.00
2024-03-05T07:07:21.296Z,30.47
2024-03-05T07:12:33.170Z,30.97
2024-03-05T07:17:40.292Z,30.40
2024-03-05T07:22:49.124Z,30.87
2024-03-05T07:28:00.068Z,28.17
2024-03-05T07:33:05.375Z,27.67
2024-03-05T07:38:13.584Z,26.23
2024-03-05T07:43:29.211Z,25.53
2024-03-05T07:49:07.440Z,24.17
2024-03-05T07:54:18.540Z,22.43
2024-03-05T07:59:54.915Z,22.57
2024-03-05T08:05:19.995Z,26.73
2024-03-05T08:10:30.281Z,24.17
2024-03-05T08:15:36.168Z,20.93
2024-03-05T08:20:44.852Z,20.23
2024-03-05T08:26:00.693Z,21.90
2024-03-05T08:31:09.652Z,21.53
2024-03-05T08:36:19.684Z,22.47
2024-03-05T08:41:35.966Z,21.63
2024-03-05T08:46:45.644Z,23.10
2024-03-05T08:51:53.121Z,21.97
2024-03-05T08:57:01.599Z,22.43
2024-03-05T09:02:26.005Z,22.43
2024-03-05T09:12:57.187Z,22.90
2024-03-05T09:18:20.576Z,20.70
2024-03-05T09:29:01.030Z,21.10
2024-03-05T09:34:06.517Z,22.00
2024-03-05T09:39:12.211Z,20.87
2024-03-05T09:44:20.711Z,23.77
2024-03-05T09:49:27.426Z,23.53
2024-03-05T09:54:35.949Z,23.47
2024-03-05T09:59:53.221Z,23.97
2024-03-05T10:05:04.559Z,23.03
2024-03-05T10:10:17.660Z,23.10
2024-03-05T10:15:57.839Z,22.90
2024-03-05T10:21:20.253Z,27.00
2024-03-05T10:26:28.936Z,27.73
2024-03-05T10:31:35.276Z,28.87
2024-03-05T10:36:49.093Z,25.97
2024-03-05T10:42:01.176Z,29.30
2024-03-05T10:47:08.140Z,28.53
2024-03-05T10:52:23.892Z,27.33
2024-03-05T10:57:30.449Z,27.50
2024-03-05T11:02:36.168Z,28.00
2024-03-05T11:07:44.018Z,29.30
2024-03-05T11:12:49.574Z,27.97
2024-03-05T11:17:54.992Z,27.80
2024-03-05T11:23:13.103Z,28.07
2024-03-05T11:28:20.569Z,24.53
2024-03-05T11:33:28.205Z,25.80
2024-03-05T11:38:57.287Z,26.07
2024-03-05T11:49:50.904Z,26.23
2024-03-05T11:55:07.418Z,26.43
2024-03-05T12:00:21.159Z,26.83
2024-03-05T12:06:23.438Z,28.03
2024-03-05T12:11:36.885Z,25.90
2024-03-05T12:22:20.746Z,25.10
2024-03-05T12:27:30.602Z,27.27
2024-03-05T12:33:32.018Z,26.27
2024-03-05T12:38:43.672Z,25.90
2024-03-05T12:43:57.836Z,24.37
2024-03-05T12:49:03.229Z,26.60
2024-03-05T12:54:12.754Z,26.07
2024-03-05T12:59:26.404Z,26.40
2024-03-05T13:04:34.535Z,26.20
2024-03-05T13:09:43.271Z,25.60
2024-03-05T13:14:53.371Z,25.10
2024-03-05T13:19:58.831Z,26.13
2024-03-05T13:25:07.579Z,24.97
2024-03-05T13:30:18.370Z,29.90
2024-03-05T13:35:24.526Z,23.33
2024-03-05T13:40:34.318Z,23.73
2024-03-05T13:45:42.465Z,24.63
2024-03-05T13:50:53.791Z,23.43
2024-03-05T13:55:59.135Z,21.50
2024-03-05T14:01:10.479Z,21.03
2024-03-05T14:06:26.976Z,21.10
2024-03-05T14:11:36.559Z,18.93
2024-03-05T14:16:44.306Z,15.20
2024-03-05T14:21:49.599Z,15.57
2024-03-05T14:26:55.285Z,16.57
2024-03-05T14:32:06.418Z,16.07
2024-03-05T14:37:12.066Z,15.30
2024-03-05T14:42:26.068Z,15.37
2024-03-05T14:53:21.651Z,16.67
2024-03-05T14:58:35.736Z,17.07
2024-03-05T15:09:21.576Z,18.67
2024-03-05T15:14:29.413Z,17.90
2024-03-05T15:19:36.428Z,18.13
2024-03-05T15:24:45.433Z,18.90
2024-03-05T15:29:51.542Z,18.13
2024-03-05T15:35:09.214Z,17.50
2024-03-05T15:51:57.238Z,17.67
2024-03-05T16:09:01.479Z,19.53
2024-03-05T16:14:10.536Z,16.40
2024-03-05T16:19:16.134Z,16.67
2024-03-05T16:24:26.842Z,16.33
2024-03-05T16:29:32.310Z,17.27
2024-03-05T16:34:38.486Z,19.97
2024-03-05T16:39:48.730Z,20.57
2024-03-05T16:44:54.271Z,20.80
2024-03-05T16:50:01.543Z,22.43
2024-03-05T16:55:11.257Z,23.03
2024-03-05T17:00:24.728Z,20.97
2024-03-05T17:05:35.220Z,18.80
2024-03-05T17:10:45.864Z,19.10
2024-03-05T17:15:56.531Z,19.23
2024-03-05T17:21:02.838Z,19.37
2024-03-05T17:26:11.388Z,19.33
2024-03-05T17:31:16.925Z,21.77
2024-03-05T17:36:22.730Z,21.27
2024-03-05T17:41:31.046Z,20.27
2024-03-05T17:46:39.283Z,19.43
2024-03-05T17:51:44.719Z,20.03
2024-03-05T17:56:52.550Z,18.77
2024-03-05T18:01:59.156Z,20.87
2024-03-05T18:07:09.730Z,19.80
2024-03-05T18:12:18.856Z,20.17
2024-03-05T18:17:24.279Z,20.40
2024-03-05T18:22:30.474Z,20.43
2024-03-05T18:27:38.125Z,20.03
2024-03-05T18:32:43.148Z,21.07
2024-03-05T18:37:49.218Z,21.50
2024-03-05T18:42:58.487Z,22.80
2024-03-05T18:48:09.625Z,22.63
2024-03-05T18:53:17.542Z,22.60
2024-03-05T18:58:25.545Z,22.00
2024-03-05T19:03:30.720Z,22.60
2024-03-05T19:08:36.068Z,23.70
2024-03-05T19:13:45.970Z,23.87
2024-03-05T19:18:54.040Z,23.00
2024-03-05T19:23:59.771Z,21.33
2024-03-05T19:29:08.054Z,19.60
2024-03-05T19:34:15.155Z,19.17
2024-03-05T19:39:20.746Z,18.27
2024-03-05T19:44:29.052Z,18.67
2024-03-05T19:49:36.678Z,17.27
2024-03-05T19:54:45.907Z,18.00
2024-03-05T19:59:57.549Z,17.27
2024-03-05T20:05:04.422Z,18.50
2024-03-05T20:10:10.588Z,17.50
2024-03-05T20:15:19.264Z,20.60
2024-03-05T20:20:26.065Z,18.63
2024-03-05T20:25:31.952Z,19.40
2024-03-05T20:30:41.011Z,20.03
2024-03-05T20:35:47.416Z,19.10
2024-03-05T20:40:53.264Z,18.43
2024-03-05T20:46:01.012Z,19.53
2024-03-05T20:51:06.409Z,20.30
2024-03-05T20:56:12.329Z,20.63
2024-03-05T21:01:20.172Z,19.00
2024-03-05T21:06:25.710Z,21.30
2024-03-05T21:11:31.130Z,20.13
2024-03-05T21:16:40.137Z,19.77
2024-03-05T21:21:47.814Z,21.20
2024-03-05T21:27:09.472Z,19.13
2024-03-05T21:32:21.318Z,20.90
2024-03-05T21:37:29.523Z,21.00
2024-03-05T21:42:35.091Z,20.70
2024-03-05T21:47:43.662Z,20.27
2024-03-05T21:52:51.432Z,20.50
2024-03-05T21:57:56.917Z,21.43
2024-03-05T22:03:05.464Z,22.37
2024-03-05T22:08:11.563Z,22.07
2024-03-05T22:13:18.526Z,20.43
2024-03-05T22:18:26.858Z,20.50
2024-03-05T22:23:33.304Z,22.33
2024-03-05T22:28:39.135Z,21.80
2024-03-05T22:33:48.040Z,23.13
2024-03-05T22:38:54.320Z,22.30
2024-03-05T22:43:59.883Z,21.27
2024-03-05T22:49:08.219Z,22.10
2024-03-05T22:54:18.178Z,22.43
2024-03-05T22:59:23.890Z,21.73
2024-03-05T23:09:55.480Z,20.80
2024-03-05T23:15:01.398Z,21.07
2024-03-05T23:20:12.171Z,21.53
2024-03-05T23:25:17.763Z,22.77
2024-03-05T23:30:23.399Z,20.93
2024-03-05T23:35:31.750Z,22.57
2024-03-05T23:40:37.629Z,23.47
2024-03-05T23:45:43.588Z,21.20
2024-03-05T23:50:51.637Z,21.93
2024-03-05T23:55:57.220Z,23.00
